Time;durP1;ratioP1;P1;durP2;ratioP2;P2;SDS_P1;SDS_P2;PMS_P1;PMS_P2;Temp;Humidity;BMP_temperature;BMP_pressure;BME280_temperature;BME280_humidity;BME280_pressure;Samples;Min_cycle;Max_cycle;Signal;HPM_P1;HPM_P2
2022/12/18 00:01:39;;;;;;;50.80;21.10;;;;;;;-4.05;81.34;101289.95;210090;1295;140778;-65
2022/12/18 00:06:44;;;;;;;44.50;17.50;;;;;;;-4.04;81.65;101288.68;209750;1304;139807;-66
2022/12/18 00:11:51;;;;;;;49.60;20.10;;;;;;;-4.02;81.38;101288.73;208945;1299;140360;-66
2022/12/18 00:16:58;;;;;;;34.70;16.90;;;;;;;-3.98;81.24;101298.70;209257;1291;140973;-65
2022/12/18 00:22:03;;;;;;;37.70;17.00;;;;;;;-3.94;81.44;101297.39;208590;1298;141287;-65
2022/12/18 00:27:08;;;;;;;35.40;16.70;;;;;;;-3.95;81.28;101305.44;209026;1297;140222;-65
2022/12/18 00:32:14;;;;;;;50.10;19.00;;;;;;;-4.06;80.99;101313.30;208088;1283;139850;-65
2022/12/18 00:37:19;;;;;;;37.10;15.90;;;;;;;-4.13;80.95;101313.08;208592;1297;140177;-66
2022/12/18 00:47:48;;;;;;;46.50;20.60;;;;;;;-4.09;81.47;101319.88;208218;1290;139554;-64
2022/12/18 00:52:54;;;;;;;44.60;19.40;;;;;;;-4.08;81.36;101335.63;208365;1305;140544;-66
2022/12/18 00:57:58;;;;;;;51.50;19.60;;;;;;;-4.09;81.45;101341.30;208241;1290;140262;-65
2022/12/18 01:03:04;;;;;;;41.50;18.00;;;;;;;-4.11;81.58;101345.06;208350;1283;139964;-64
2022/12/18 01:08:10;;;;;;;42.40;19.00;;;;;;;-4.16;81.39;101345.17;208469;1293;141327;-64
2022/12/18 01:13:15;;;;;;;38.20;18.70;;;;;;;-4.21;81.03;101352.63;208516;1297;141570;-64
2022/12/18 01:18:20;;;;;;;31.80;16.60;;;;;;;-4.22;80.95;101362.23;209125;1296;140370;-65
2022/12/18 01:23:24;;;;;;;42.10;18.40;;;;;;;-4.25;81.26;101366.14;207790;1283;140124;-65
2022/12/18 01:28:29;;;;;;;39.60;18.90;;;;;;;-4.27;81.29;101368.69;209469;1297;139888;-65
2022/12/18 01:33:35;;;;;;;46.40;18.10;;;;;;;-4.28;81.46;101374.85;208488;1292;141446;-64
2022/12/18 01:38:40;;;;;;;33.30;16.10;;;;;;;-4.24;81.44;101376.48;208305;1291;141424;-65
2022/12/18 01:43:50;;;;;;;42.10;20.40;;;;;;;-4.20;81.22;101380.34;208627;1297;155141;-63
2022/12/18 01:48:59;;;;;;;44.00;20.70;;;;;;;-4.24;81.11;101389.52;210038;1297;139863;-65
2022/12/18 01:54:04;;;;;;;44.30;22.60;;;;;;;-4.30;81.39;101393.04;209823;1297;140703;-65
2022/12/18 01:59:11;;;;;;;41.80;19.30;;;;;;;-4.31;81.22;101403.48;210087;1296;141078;-65
2022/12/18 02:04:25;;;;;;;38.50;16.00;;;;;;;-4.32;80.79;101405.31;209489;1290;141602;-65
2022/12/18 02:09:38;;;;;;;41.00;18.20;;;;;;;-4.30;81.12;101410.89;207665;1290;139875;-64
2022/12/18 02:15:05;;;;;;;32.10;14.90;;;;;;;-4.31;81.07;101413.01;208917;1290;139937;-65
2022/12/18 02:21:01;;;;;;;41.70;19.20;;;;;;;-4.33;81.31;101418.03;208212;1284;140047;-64
2022/12/18 02:26:13;;;;;;;40.70;15.30;;;;;;;-4.33;81.28;101431.55;206567;1290;139926;-65
2022/12/18 02:31:24;;;;;;;43.30;19.40;;;;;;;-4.29;81.39;101435.98;207785;1299;140339;-64
2022/12/18 02:36:31;;;;;;;46.40;19.50;;;;;;;-4.24;81.54;101436.15;208923;1296;140292;-64
2022/12/18 02:41:37;;;;;;;33.70;16.50;;;;;;;-4.21;81.53;101440.52;208193;1290;140161;-64
2022/12/18 02:46:49;;;;;;;36.90;16.50;;;;;;;-4.25;81.51;101445.96;208952;1296;140515;-64
2022/12/18 02:51:56;;;;;;;36.60;15.30;;;;;;;-4.28;81.67;101452.39;208496;1296;140520;-64
2022/12/18 02:57:11;;;;;;;39.50;20.20;;;;;;;-4.28;81.46;101452.79;207599;1290;141550;-64
2022/12/18 03:02:31;;;;;;;38.10;19.10;;;;;;;-4.30;81.07;101457.22;208733;1297;139932;-64
2022/12/18 03:07:48;;;;;;;39.60;18.40;;;;;;;-4.36;81.50;101460.73;207393;1291;223251;-64
2022/12/18 03:13:05;;;;;;;42.70;20.30;;;;;;;-4.42;81.37;101469.07;208446;1298;139781;-64
2022/12/18 03:18:25;;;;;;;55.40;20.90;;;;;;;-4.45;81.45;101474.96;209209;1297;139901;-64
2022/12/18 03:23:34;;;;;;;46.00;17.70;;;;;;;-4.40;81.56;101481.82;208291;1291;140031;-65
2022/12/18 03:28:45;;;;;;;42.70;19.40;;;;;;;-4.39;81.27;101489.05;209943;1298;145027;-64
2022/12/18 03:34:00;;;;;;;50.10;23.90;;;;;;;-4.38;81.33;101493.33;209301;1297;139161;-64
2022/12/18 03:39:04;;;;;;;42.10;19.90;;;;;;;-4.42;81.59;101500.67;209258;1297;141177;-66
2022/12/18 03:44:30;;;;;;;40.30;18.00;;;;;;;-4.40;81.72;101510.44;208648;1293;139668;-64
2022/12/18 03:49:41;;;;;;;53.80;20.70;;;;;;;-4.38;81.65;101517.11;209973;1296;140571;-64
2022/12/18 03:54:46;;;;;;;48.50;19.60;;;;;;;-4.30;81.35;101522.67;209443;1297;140423;-65
2022/12/18 03:59:57;;;;;;;39.90;22.00;;;;;;;-4.26;81.52;101524.61;210220;1296;141241;-64
2022/12/18 04:05:07;;;;;;;45.80;19.80;;;;;;;-4.34;81.50;101520.14;208037;1291;140290;-63
2022/12/18 04:10:13;;;;;;;39.00;17.90;;;;;;;-4.40;81.53;101521.73;208710;1284;140304;-64
2022/12/18 04:15:17;;;;;;;37.00;19.60;;;;;;;-4.35;81.42;101544.70;208147;1291;681278;-64
2022/12/18 04:20:22;;;;;;;49.30;21.00;;;;;;;-4.33;81.56;101538.83;207934;1291;139493;-63
2022/12/18 04:25:26;;;;;;;40.40;18.90;;;;;;;-4.32;81.55;101542.57;207650;1297;140000;-64
2022/12/18 04:30:30;;;;;;;49.80;18.50;;;;;;;-4.32;81.72;101551.23;208627;1280;139899;-64
2022/12/18 04:35:36;;;;;;;43.10;20.50;;;;;;;-4.36;81.70;101560.67;207600;1290;139765;-64
2022/12/18 04:40:40;;;;;;;41.70;19.00;;;;;;;-4.33;81.60;101564.38;207627;1297;140583;-64
2022/12/18 04:45:46;;;;;;;43.70;20.60;;;;;;;-4.32;81.69;101574.52;207960;1296;141112;-63
2022/12/18 04:50:50;;;;;;;39.20;18.70;;;;;;;-4.36;81.82;101580.83;208061;1297;139887;-64
2022/12/18 04:56:04;;;;;;;37.50;16.50;;;;;;;-4.41;81.81;101594.30;208969;1291;139649;-64
2022/12/18 05:01:10;;;;;;;49.90;20.00;;;;;;;-4.44;81.59;101598.14;208523;1300;140369;-65
2022/12/18 05:06:14;;;;;;;48.40;21.00;;;;;;;-4.35;81.60;101599.70;208668;1297;140760;-64
2022/12/18 05:11:20;;;;;;;51.70;23.80;;;;;;;-4.31;81.90;101600.70;208402;1291;229948;-64
2022/12/18 05:16:24;;;;;;;45.20;18.70;;;;;;;-4.28;81.84;101604.67;208865;1297;141395;-66
2022/12/18 05:21:29;;;;;;;60.40;21.80;;;;;;;-4.32;81.47;101608.21;208992;1296;140910;-65
2022/12/18 05:26:33;;;;;;;55.60;25.20;;;;;;;-4.27;81.58;101603.30;208480;1296;142188;-64
2022/12/18 05:31:39;;;;;;;55.40;26.50;;;;;;;-4.24;81.75;101605.39;208954;1296;139337;-65
2022/12/18 05:36:44;;;;;;;66.00;28.10;;;;;;;-4.25;81.69;101613.77;209752;1291;140816;-66
2022/12/18 05:41:48;;;;;;;56.70;25.10;;;;;;;-4.29;81.34;101608.72;209991;1299;141072;-66
2022/12/18 05:46:53;;;;;;;60.40;23.00;;;;;;;-4.26;81.43;101624.30;209003;1297;140517;-65
2022/12/18 05:51:56;;;;;;;54.30;24.90;;;;;;;-4.23;81.33;101623.22;209932;1303;141002;-65
2022/12/18 05:57:01;;;;;;;58.50;24.60;;;;;;;-4.24;81.51;101633.58;210072;1297;140728;-64
2022/12/18 06:02:04;;;;;;;63.00;24.00;;;;;;;-4.29;81.35;101640.65;208975;1288;139364;-64
2022/12/18 06:07:09;;;;;;;60.90;25.70;;;;;;;-4.31;81.29;101644.60;209292;1297;140323;-66
2022/12/18 06:12:14;;;;;;;74.80;30.40;;;;;;;-4.29;81.08;101652.05;207390;1297;140673;-64
2022/12/18 06:17:18;;;;;;;68.40;28.50;;;;;;;-4.31;81.08;101664.89;208845;1300;141013;-66
2022/12/18 06:22:23;;;;;;;60.70;27.80;;;;;;;-4.31;81.40;101675.83;208430;1296;141046;-65
2022/12/18 06:27:27;;;;;;;65.70;26.60;;;;;;;-4.33;81.47;101681.18;207757;1297;140751;-66
2022/12/18 06:32:31;;;;;;;58.00;24.30;;;;;;;-4.39;81.50;101699.20;208045;1294;139340;-66
2022/12/18 06:37:35;;;;;;;57.90;26.00;;;;;;;-4.46;81.26;101700.43;208706;1297;139402;-65
2022/12/18 06:42:40;;;;;;;74.70;32.50;;;;;;;-4.53;80.97;101712.49;208396;1295;140724;-64
2022/12/18 06:47:44;;;;;;;61.50;26.50;;;;;;;-4.54;81.12;101720.17;207923;1291;140950;-63
2022/12/18 06:52:48;;;;;;;68.80;29.60;;;;;;;-4.55;81.48;101725.98;207823;1296;140701;-63
2022/12/18 06:57:52;;;;;;;73.10;29.60;;;;;;;-4.61;81.49;101731.17;208239;1288;244817;-63
2022/12/18 07:02:56;;;;;;;78.00;33.50;;;;;;;-4.65;81.20;101757.11;208423;1297;141153;-61
2022/12/18 07:08:00;;;;;;;58.90;24.20;;;;;;;-4.67;81.37;101758.27;209321;1297;140614;-63
2022/12/18 07:13:04;;;;;;;66.60;27.70;;;;;;;-4.69;81.21;101766.55;208568;1297;141120;-66
2022/12/18 07:18:08;;;;;;;43.40;16.20;;;;;;;-4.75;81.27;101775.34;208780;1296;140263;-65
2022/12/18 07:23:12;;;;;;;70.80;28.60;;;;;;;-4.77;81.43;101797.30;209564;1294;140100;-61
2022/12/18 07:28:15;;;;;;;59.40;23.20;;;;;;;-4.71;81.26;101795.63;208831;1288;140813;-62
2022/12/18 07:33:19;;;;;;;70.80;27.20;;;;;;;-4.62;81.28;101794.44;208060;1287;140309;-64
2022/12/18 07:38:23;;;;;;;59.40;24.40;;;;;;;-4.58;81.13;101788.10;209761;1296;139544;-65
2022/12/18 07:43:27;;;;;;;67.90;28.60;;;;;;;-4.57;81.06;101792.53;210031;1303;140275;-66
2022/12/18 07:48:31;;;;;;;64.40;24.40;;;;;;;-4.54;81.33;101804.48;209808;1298;140326;-65
2022/12/18 07:53:35;;;;;;;63.60;27.90;;;;;;;-4.44;80.91;101809.83;209711;1296;140018;-68
2022/12/18 07:58:41;;;;;;;62.60;25.20;;;;;;;-4.31;81.01;101809.13;209993;1294;140973;-68
2022/12/18 08:03:45;;;;;;;70.50;27.90;;;;;;;-4.32;80.74;101809.69;207329;1296;139200;-68
2022/12/18 08:08:55;;;;;;;63.70;28.30;;;;;;;-4.24;80.85;101818.27;207426;1296;140056;-64
2022/12/18 08:13:59;;;;;;;66.60;27.10;;;;;;;-4.19;80.74;101819.85;209542;1297;141324;-64
2022/12/18 08:19:03;;;;;;;73.50;26.10;;;;;;;-4.15;80.71;101826.73;208520;1297;141401;-66
2022/12/18 08:24:09;;;;;;;73.00;29.70;;;;;;;-4.07;80.43;101825.27;209252;1296;140635;-68
2022/12/18 08:29:13;;;;;;;65.60;27.20;;;;;;;-4.04;80.15;101837.25;208948;1287;142803;-66
2022/12/18 08:34:23;;;;;;;69.70;27.90;;;;;;;-4.02;80.11;101847.56;207219;1289;141162;-65
2022/12/18 08:39:28;;;;;;;58.40;30.60;;;;;;;-4.00;80.29;101842.73;208195;1294;140442;-65
2022/12/18 08:44:38;;;;;;;53.10;21.20;;;;;;;-4.00;80.11;101850.54;207800;1291;139827;-66
2022/12/18 08:49:44;;;;;;;55.30;22.30;;;;;;;-3.97;79.76;101854.89;207702;1289;140074;-66
2022/12/18 08:54:49;;;;;;;39.10;16.40;;;;;;;-3.91;79.48;101863.52;208154;1301;141001;-66
2022/12/18 08:59:55;;;;;;;49.70;20.80;;;;;;;-3.87;79.31;101870.27;208123;1295;140404;-64
2022/12/18 09:05:00;;;;;;;41.80;17.70;;;;;;;-3.85;79.79;101872.71;208787;1296;140333;-64
2022/12/18 09:10:05;;;;;;;54.40;22.50;;;;;;;-3.79;79.82;101886.26;208282;1298;139420;-65
2022/12/18 09:15:09;;;;;;;56.80;20.40;;;;;;;-3.72;79.62;101891.30;208267;1299;139669;-65
2022/12/18 09:20:13;;;;;;;49.60;21.70;;;;;;;-3.73;79.31;101893.23;208900;1296;140917;-63
2022/12/18 09:25:18;;;;;;;47.50;17.40;;;;;;;-3.70;79.05;101894.27;209057;1298;140726;-63
2022/12/18 09:30:21;;;;;;;285.00;105.80;;;;;;;-3.67;78.88;101906.46;209677;1294;140955;-66
2022/12/18 09:35:27;;;;;;;66.80;28.20;;;;;;;-3.66;78.83;101908.45;209434;1294;140179;-66
2022/12/18 09:40:39;;;;;;;53.50;25.40;;;;;;;-3.72;78.75;101901.52;209992;1295;139979;-66
2022/12/18 09:45:53;;;;;;;46.30;17.50;;;;;;;-3.69;78.90;101897.52;210139;1302;140573;-61
2022/12/18 09:51:05;;;;;;;57.40;22.60;;;;;;;-3.60;78.84;101889.86;209983;1304;140502;-66
2022/12/18 09:56:15;;;;;;;45.40;25.70;;;;;;;-3.46;78.73;101894.39;210002;1289;140326;-67
2022/12/18 10:01:22;;;;;;;58.20;24.10;;;;;;;-3.45;78.37;101894.86;210049;1303;140249;-68
2022/12/18 10:06:45;;;;;;;55.60;23.10;;;;;;;-3.39;78.72;101893.63;208151;1297;139715;-66
2022/12/18 10:12:16;;;;;;;43.70;16.60;;;;;;;-3.35;78.41;101892.15;207785;1297;141350;-64
2022/12/18 10:18:04;;;;;;;56.50;22.00;;;;;;;-3.32;78.29;101894.22;207632;1289;140339;-62
2022/12/18 10:23:26;;;;;;;49.00;19.20;;;;;;;-3.26;78.15;101885.70;208385;1289;140212;-65
2022/12/18 10:28:31;;;;;;;38.90;19.70;;;;;;;-3.35;77.76;101893.20;207319;1297;139377;-65
2022/12/18 10:33:36;;;;;;;47.20;22.90;;;;;;;-3.42;77.70;101892.92;208244;1295;139461;-68
2022/12/18 10:38:40;;;;;;;48.50;20.50;;;;;;;-3.50;77.57;101901.09;207004;1296;140199;-67
2022/12/18 10:43:46;;;;;;;46.40;19.60;;;;;;;-3.48;77.72;101904.42;207514;1297;140225;-67
2022/12/18 10:48:54;;;;;;;47.70;21.00;;;;;;;-3.45;77.77;101909.45;207165;1296;139991;-66
2022/12/18 10:54:05;;;;;;;47.10;17.20;;;;;;;-3.42;77.63;101907.35;207478;1289;141072;-65
2022/12/18 10:59:13;;;;;;;59.60;24.60;;;;;;;-3.48;77.32;101907.89;207254;1296;143252;-64
2022/12/18 11:04:20;;;;;;;;;;;;;;;-3.46;77.44;101907.06;208813;1304;141347;-64
2022/12/18 11:09:28;;;;;;;44.80;23.00;;;;;;;-3.45;77.38;101907.18;207776;1297;127048;-66
2022/12/18 11:14:43;;;;;;;48.10;22.00;;;;;;;-3.45;77.48;101898.84;207210;1296;139641;-67
2022/12/18 11:19:56;;;;;;;57.30;21.60;;;;;;;-3.46;77.12;101893.01;208297;1298;140801;-66
2022/12/18 11:25:18;;;;;;;52.80;22.90;;;;;;;-3.41;77.13;101895.83;208431;1303;139690;-64
2022/12/18 11:30:37;;;;;;;54.10;22.20;;;;;;;-3.41;77.21;101899.48;210180;1298;142756;-66
2022/12/18 11:35:47;;;;;;;44.90;17.80;;;;;;;-3.38;77.34;101903.30;209700;1289;140618;-67
2022/12/18 11:47:05;;;;;;;35.20;14.70;;;;;;;-3.48;76.11;101893.65;210043;1296;223466;-66
2022/12/18 11:52:35;;;;;;;31.10;17.00;;;;;;;-3.70;76.02;101898.78;208730;1298;140266;-66
2022/12/18 11:58:14;;;;;;;41.70;23.80;;;;;;;-3.79;76.52;101901.38;207757;1290;229672;-66
2022/12/18 12:03:51;;;;;;;49.60;18.90;;;;;;;-3.74;76.91;101900.58;207428;1289;247552;-63
2022/12/18 12:09:16;;;;;;;40.50;18.50;;;;;;;-3.69;76.86;101910.72;207705;1296;140817;-65
2022/12/18 12:14:33;;;;;;;52.30;20.80;;;;;;;-3.74;76.73;101911.36;209224;1297;140448;-64
2022/12/18 12:20:08;;;;;;;44.20;19.60;;;;;;;-3.67;77.06;101905.38;208250;1296;140493;-64
2022/12/18 12:25:29;;;;;;;52.90;22.40;;;;;;;-3.75;76.60;101923.42;208083;1304;139662;-65
2022/12/18 12:30:46;;;;;;;45.50;19.00;;;;;;;-4.13;76.13;101938.44;207538;1296;139409;-64
2022/12/18 12:36:25;;;;;;;48.40;20.70;;;;;;;-4.50;76.46;101940.70;208287;1288;141161;-65
2022/12/18 12:47:03;;;;;;;52.60;23.80;;;;;;;-4.49;77.51;101957.96;208138;1291;222210;-65
2022/12/18 12:52:34;;;;;;;32.60;16.20;;;;;;;-4.49;77.18;101955.01;208634;1287;140735;-65
2022/12/18 12:57:45;;;;;;;38.30;18.20;;;;;;;-4.49;77.70;101956.39;208279;1298;140174;-63
2022/12/18 13:03:02;;;;;;;59.10;23.10;;;;;;;-4.44;77.54;101956.18;208179;1281;140867;-65
2022/12/18 13:08:21;;;;;;;52.80;19.60;;;;;;;-4.43;77.76;101962.48;209137;1289;140790;-67
2022/12/18 13:14:00;;;;;;;44.30;19.90;;;;;;;-4.41;77.75;101963.10;207812;1297;139489;-65
2022/12/18 13:19:25;;;;;;;62.50;22.70;;;;;;;-4.36;77.37;101965.98;209085;1304;235276;-65
2022/12/18 13:24:31;;;;;;;52.90;24.60;;;;;;;-4.41;77.31;101965.20;209426;1298;140731;-66
2022/12/18 13:29:42;;;;;;;36.70;16.20;;;;;;;-4.54;77.28;101967.27;208936;1296;140602;-66
2022/12/18 13:34:46;;;;;;;42.10;19.90;;;;;;;-4.75;76.65;101965.30;210074;1297;140330;-66
2022/12/18 13:39:50;;;;;;;46.40;20.80;;;;;;;-5.04;76.72;101965.30;210106;1297;139360;-66
2022/12/18 13:44:54;;;;;;;46.40;19.30;;;;;;;-5.13;77.57;101977.34;209741;1298;141338;-67
2022/12/18 13:49:58;;;;;;;35.50;15.10;;;;;;;-5.12;77.88;101974.17;209136;1297;139694;-67
2022/12/18 13:55:14;;;;;;;48.90;19.60;;;;;;;-5.07;78.09;101979.64;209168;1298;141741;-66
2022/12/18 14:00:22;;;;;;;41.10;16.00;;;;;;;-4.99;77.73;101989.50;209050;1297;141606;-65
2022/12/18 14:05:34;;;;;;;29.60;14.30;;;;;;;-5.05;78.18;101983.55;209359;1297;139982;-66
2022/12/18 14:10:47;;;;;;;54.60;22.30;;;;;;;-5.21;77.70;101982.27;208142;1297;140453;-66
2022/12/18 14:15:53;;;;;;;56.90;23.70;;;;;;;-5.36;77.99;101989.64;208405;1304;140077;-63
2022/12/18 14:21:01;;;;;;;51.00;22.30;;;;;;;-5.32;78.50;102000.19;208358;1297;140582;-65
2022/12/18 14:26:28;;;;;;;47.70;19.40;;;;;;;-5.23;78.85;102006.15;208642;1289;139724;-66
2022/12/18 14:31:33;;;;;;;33.50;14.50;;;;;;;-5.23;78.74;102005.63;208176;1290;140387;-63
2022/12/18 14:36:39;;;;;;;49.70;18.30;;;;;;;-5.45;78.24;101996.84;208530;1292;141684;-66
2022/12/18 14:41:43;;;;;;;49.20;20.70;;;;;;;-5.61;78.31;101993.84;208003;1298;140676;-63
2022/12/18 14:46:51;;;;;;;54.60;20.60;;;;;;;-5.77;78.63;101997.21;207440;1298;140135;-65
2022/12/18 14:52:03;;;;;;;33.80;15.60;;;;;;;-5.81;79.25;102009.56;207849;1296;142332;-63
2022/12/18 14:57:23;;;;;;;53.30;21.10;;;;;;;-5.85;79.20;102000.77;208521;1297;142348;-63
2022/12/18 15:02:29;;;;;;;61.70;26.30;;;;;;;-5.83;79.07;102014.15;208970;1290;140624;-65
2022/12/18 15:07:43;;;;;;;48.00;19.60;;;;;;;-5.74;79.57;102020.63;208236;1297;139504;-62
2022/12/18 15:13:06;;;;;;;61.30;25.00;;;;;;;-5.72;79.31;102019.69;208730;1298;139866;-65
2022/12/18 15:18:20;;;;;;;61.90;23.20;;;;;;;-5.90;79.15;102007.92;208896;1291;139848;-62
2022/12/18 15:23:28;;;;;;;34.40;14.90;;;;;;;-6.00;79.01;102007.02;209182;1290;141981;-62
2022/12/18 15:28:37;;;;;;;39.40;16.30;;;;;;;-6.11;79.40;102016.22;209690;1303;139885;-64
2022/12/18 15:34:20;;;;;;;42.90;18.10;;;;;;;-6.19;79.46;102021.95;209136;1297;140248;-63
2022/12/18 15:39:25;;;;;;;45.00;18.10;;;;;;;-6.16;79.49;102024.43;209989;1288;235926;-64
2022/12/18 15:44:30;;;;;;;39.10;15.10;;;;;;;-6.11;79.46;102038.20;209517;1297;140548;-66
2022/12/18 15:49:35;;;;;;;38.60;21.40;;;;;;;-6.24;79.34;102029.48;209990;1297;139671;-64
2022/12/18 18:40:59;;;;;;;31.50;13.70;;;;;;;-6.93;81.92;102030.67;207130;1333;659753;-67
2022/12/18 18:46:04;;;;;;;48.00;21.20;;;;;;;-6.92;81.30;102032.55;205919;1304;216644;-63
2022/12/18 18:51:12;;;;;;;40.80;14.30;;;;;;;-7.03;81.13;102035.95;205077;1297;316852;-64
2022/12/18 18:56:26;;;;;;;43.10;18.10;;;;;;;-7.13;81.19;102042.95;205592;1292;144094;-67
2022/12/18 19:01:51;;;;;;;46.10;17.60;;;;;;;-7.21;81.41;102045.87;205821;1303;139093;-67
2022/12/18 19:06:56;;;;;;;35.40;13.70;;;;;;;-7.19;81.40;102044.06;205049;1307;140723;-63
2022/12/18 19:17:27;;;;;;;26.20;13.80;;;;;;;-7.21;81.55;102070.23;207281;1309;139513;-64
2022/12/18 19:22:34;;;;;;;38.20;17.60;;;;;;;-7.29;81.10;102075.23;207775;1309;140409;-62
2022/12/18 19:27:38;;;;;;;37.30;15.70;;;;;;;-7.37;81.28;102079.05;207239;1301;140011;-62
2022/12/18 19:32:42;;;;;;;34.80;14.40;;;;;;;-7.46;81.39;102088.56;207261;1300;141075;-64
2022/12/18 19:37:45;;;;;;;45.70;19.80;;;;;;;-7.39;81.58;102084.34;208877;1296;139993;-65
2022/12/18 19:42:49;;;;;;;34.00;18.00;;;;;;;-7.32;81.87;102087.98;209043;1302;140340;-62
2022/12/18 19:47:53;;;;;;;52.20;21.70;;;;;;;-7.23;81.89;102088.48;208221;1299;247596;-63
2022/12/18 19:53:03;;;;;;;45.50;19.30;;;;;;;-7.20;81.66;102070.70;207146;1290;236259;-66
2022/12/18 19:58:10;;;;;;;38.30;15.00;;;;;;;-7.31;81.55;102061.84;207185;1296;139982;-65
2022/12/18 20:03:14;;;;;;;49.00;20.70;;;;;;;-7.38;81.67;102066.48;207561;1290;139950;-64
2022/12/18 20:08:32;;;;;;;46.10;19.20;;;;;;;-7.45;82.03;102068.15;208965;1291;141096;-64
2022/12/18 20:13:37;;;;;;;39.60;14.40;;;;;;;-7.49;81.92;102066.40;207109;1287;139547;-65
2022/12/18 20:18:42;;;;;;;42.60;16.30;;;;;;;-7.59;81.81;102045.21;208887;1290;142953;-65
2022/12/18 20:23:47;;;;;;;38.20;17.80;;;;;;;-7.69;82.13;102030.44;206905;1293;139265;-64
2022/12/18 20:28:53;;;;;;;57.00;20.40;;;;;;;-7.67;82.17;102022.63;207298;1293;140655;-67
2022/12/18 20:33:58;;;;;;;40.30;16.30;;;;;;;-7.72;82.30;102014.70;208472;1299;140560;-67
2022/12/18 20:39:08;;;;;;;39.90;17.50;;;;;;;-7.72;82.30;102017.45;207377;1294;139605;-66
2022/12/18 20:44:16;;;;;;;41.60;16.30;;;;;;;-7.74;82.45;102013.21;206981;1291;140442;-66
2022/12/18 20:49:27;;;;;;;38.70;15.50;;;;;;;-7.69;82.67;102007.67;207562;1299;140335;-66
2022/12/18 20:54:31;;;;;;;32.20;17.20;;;;;;;-7.59;82.48;102009.98;207196;1286;140225;-65
2022/12/18 20:59:36;;;;;;;51.90;21.70;;;;;;;-7.64;82.31;102028.87;207157;1286;138683;-61
2022/12/18 21:04:50;;;;;;;36.20;15.10;;;;;;;-7.69;82.48;102026.83;207832;1300;236759;-65
2022/12/18 21:09:56;;;;;;;38.90;13.70;;;;;;;-7.70;82.48;102027.55;207357;1286;142414;-62
2022/12/18 21:15:05;;;;;;;27.60;10.90;;;;;;;-7.68;82.54;102037.13;208589;1291;139517;-65
2022/12/18 21:20:10;;;;;;;41.10;17.40;;;;;;;-7.66;82.61;102030.49;209810;1296;140260;-64
2022/12/18 21:25:21;;;;;;;39.30;15.10;;;;;;;-7.73;82.55;102021.65;209619;1301;140757;-64
2022/12/18 21:30:26;;;;;;;38.20;14.30;;;;;;;-7.71;82.44;102028.99;209529;1299;141230;-63
2022/12/18 21:35:32;;;;;;;27.10;14.10;;;;;;;-7.66;82.62;102028.60;209560;1294;141641;-65
2022/12/18 21:40:38;;;;;;;24.80;12.10;;;;;;;-7.67;82.50;102027.27;209431;1295;140126;-63
2022/12/18 21:45:42;;;;;;;39.50;16.90;;;;;;;-7.64;82.67;102024.02;207942;1289;140790;-65
2022/12/18 21:50:47;;;;;;;42.00;17.90;;;;;;;-7.59;82.79;102022.26;209125;1299;139795;-64
2022/12/18 21:56:00;;;;;;;32.20;14.30;;;;;;;-7.46;82.85;102016.20;208531;1299;139788;-62
2022/12/18 22:01:07;;;;;;;26.30;12.50;;;;;;;-7.41;82.66;102010.15;207858;1294;139988;-64
2022/12/18 22:06:12;;;;;;;24.40;9.80;;;;;;;-7.42;82.60;102008.79;208391;1288;141709;-63
2022/12/18 22:11:17;;;;;;;22.60;11.60;;;;;;;-7.40;82.72;102010.60;206877;1286;141283;-65
2022/12/18 22:16:24;;;;;;;;;;;;;;;-7.47;82.81;102010.89;208250;1293;139553;-63
2022/12/18 22:21:32;;;;;;;22.00;10.00;;;;;;;-7.46;82.99;102007.91;207988;1287;125753;-63
2022/12/18 22:26:36;;;;;;;28.30;10.70;;;;;;;-7.43;82.82;101995.86;207064;1290;140464;-63
2022/12/18 22:31:43;;;;;;;25.10;12.10;;;;;;;-7.43;83.08;101993.80;206831;1303;139256;-61
2022/12/18 22:36:48;;;;;;;35.10;14.80;;;;;;;-7.39;83.08;101997.97;207814;1294;141176;-65
2022/12/18 22:41:55;;;;;;;18.40;9.80;;;;;;;-7.37;83.12;101989.23;207866;1299;140555;-63
2022/12/18 22:46:59;;;;;;;30.00;13.40;;;;;;;-7.35;82.94;101985.87;207621;1294;141390;-61
2022/12/18 22:52:09;;;;;;;20.40;12.20;;;;;;;-7.31;82.88;101975.46;207744;1293;235152;-61
2022/12/18 22:57:16;;;;;;;19.20;10.10;;;;;;;-7.36;82.70;101971.90;207799;1299;142615;-64
2022/12/18 23:02:22;;;;;;;25.40;12.90;;;;;;;-7.42;82.49;101969.58;207745;1299;141123;-62
2022/12/18 23:07:27;;;;;;;30.50;15.00;;;;;;;-7.52;82.57;101957.03;207397;1294;140530;-62
2022/12/18 23:12:36;;;;;;;28.50;12.90;;;;;;;-7.66;82.42;101949.34;208159;1296;139909;-61
2022/12/18 23:17:40;;;;;;;31.00;12.00;;;;;;;-7.73;82.22;101940.86;208981;1293;140450;-62
2022/12/18 23:22:44;;;;;;;36.20;14.10;;;;;;;-7.83;82.52;101939.16;209262;1292;139259;-60
2022/12/18 23:27:50;;;;;;;26.70;13.10;;;;;;;-7.81;82.42;101931.67;209486;1303;141608;-64
2022/12/18 23:32:55;;;;;;;21.50;9.80;;;;;;;-7.86;82.42;101928.41;209464;1292;141286;-63
2022/12/18 23:38:00;;;;;;;30.00;11.80;;;;;;;-7.89;82.32;101928.36;207796;1291;141300;-61
2022/12/18 23:43:04;;;;;;;32.90;12.40;;;;;;;-7.92;82.53;101922.81;209077;1295;140669;-64
2022/12/18 23:48:09;;;;;;;22.00;11.50;;;;;;;-7.91;82.56;101922.23;207946;1299;141701;-64
2022/12/18 23:53:14;;;;;;;33.60;8.50;;;;;;;-7.99;82.55;101921.04;207666;1291;141327;-61
2022/12/18 23:58:20;;;;;;;34.70;13.60;;;;;;;-8.03;82.63;101916.21;208601;1291;139916;-61
